Аэропорт: Пулково. Санкт-Петербург

ICAO: ULLI

METAR:
2020-06-04 03:00:00
ULLI 040300Z 10005MPS 9999 -SHRA BKN027CB OVC046 14/10 Q1008 R10R/290050 NOSIG
METAR:
2020-06-04 01:59:00
TAF ULLI 040159Z 0403/0503 06005G11MPS 9999 BKN015 TEMPO 0403/0406 3100 -SHRA BKN012 BKN020CB BECMG 0406/0407 4000 -RA BKN012 BKN025 TEMPO 0407/0412 06007G12MPS 3100 -SHRA BKN011 BKN020CB TEMPO 0412/0503 3100 -SHRA BR BKN005 BKN016CB BECMG 0418/0420 14005MPS